Almaty, Kazakhstan

3:42 AM ALMT on August 05, 2015 (GMT +0600)
Boralday Almaty | | Change Station
CLOSE
Current Station
Personal Weather Station
Location: Боралдай, Алматинская область
Elevation: 2274 ft
Nearby Weather Stations

Elev 2274 ft 43.35 °N, 76.84 °E | Updated 7 minutes ago

Partly Cloudy
Partly Cloudy
68.2 °F
Feels Like 68.2 °F
N
0.0
Wind Variable Wind from NE

Today
High -- | Low -- °F
--% Chance of Precip.
Yesterday
High -- | Low -- °F
Precip. -- in
5:46 AM 8:09 PM
Waning Gibbous, 74% visible
Pressure 29.74 in
Visibility 6.2 miles
Clouds Few 10000 ft
Dew Point 46 °F
Humidity 45%
Rainfall 0.00 in
Snow Depth Not available.
UV 0.0 out of 12
Pollen Not available.
Air Quality Not available.
Flu Activity Not available.
METAR UAAA 042130Z 18002MPS 9999 FEW100 18/05 Q1007 R88/CLRD65 NOSIG

More Conditions Fewer Conditions

Pressure 29.74 in
Visibility 6.2 miles
Clouds Few 10000 ft
Dew Point 46 °F
Humidity 45%
Rainfall 0.00 in
Snow Depth Not available.
UV 0.0 out of 12
Pollen Not available.
Air Quality Not available.
Flu Activity Not available.
METAR UAAA 042130Z 18002MPS 9999 FEW100 18/05 Q1007 R88/CLRD65 NOSIG

More Conditions Fewer Conditions

10-Day Weather Forecast

×

Almanac

Astronomy

Aug. 05, 2015 Rise Set
Actual Time
Civil Twilight
Nautical Twilight
Astronomical Twilight
Moon
Length of Visible Light
Length of Day
Tomorrow will be .
, % of the Moon is Illuminated

Today's Extremes

Country Highs Country Lows

Community

WunderPhotos

Upload Photos

1,843,992 photos uploaded!

WunderBlogs® & News

Nearby

Air Quality

  Air Quality AQ Index Pollutant
Not available.

Snow Depth

Station Depth Elevation

Earthquake Activity

City Distance Mag. Time & Date
Minimum magnitude displayed is 2.5.

Coastal Water Temperatures

Place Temperature

Stations

Nearby Weather Stations

Station Location Temp. Windchill Dew Point Humidity Wind Precip. Elev Updated Type